Time;durP1;ratioP1;P1;durP2;ratioP2;P2;SDS_P1;SDS_P2;PMS_P1;PMS_P2;Temp;Humidity;BMP_temperature;BMP_pressure;BME280_temperature;BME280_humidity;BME280_pressure;Samples;Min_cycle;Max_cycle;Signal;HPM_P1;HPM_P2
2021/11/19 00:11:34;;;;;;;4.88;3.25;;;22.30;53.90;;;;;;5176288;28;20037;-51
2021/11/19 00:18:38;;;;;;;5.28;3.72;;;22.30;54.00;;;;;;5156783;28;20554;-46
2021/11/19 00:21:11;;;;;;;6.90;3.30;;;22.30;54.10;;;;;;5160162;28;20064;-51
2021/11/19 00:23:45;;;;;;;5.30;3.28;;;22.30;54.10;;;;;;5146547;28;20060;-53
2021/11/19 00:26:19;;;;;;;7.97;3.55;;;22.30;54.10;;;;;;5159872;28;20048;-52
2021/11/19 00:28:53;;;;;;;5.35;3.20;;;22.30;54.00;;;;;;5164051;28;20038;-55
2021/11/19 00:31:28;;;;;;;8.43;3.13;;;22.30;54.00;;;;;;5148354;28;20050;-48
2021/11/19 00:34:00;;;;;;;9.23;3.55;;;22.30;54.00;;;;;;5165288;28;20042;-47
2021/11/19 00:36:35;;;;;;;5.03;3.30;;;22.30;54.00;;;;;;5156889;28;20252;-47
2021/11/19 00:39:11;;;;;;;5.50;2.95;;;22.30;54.10;;;;;;5163137;28;20061;-54
2021/11/19 00:41:46;;;;;;;3.58;2.95;;;22.30;54.00;;;;;;5147247;28;20516;-58
2021/11/19 00:44:20;;;;;;;4.22;2.80;;;22.30;54.00;;;;;;5166930;28;20540;-57
2021/11/19 00:46:55;;;;;;;4.32;2.88;;;22.30;54.00;;;;;;5163419;28;20049;-47
2021/11/19 00:49:31;;;;;;;5.22;2.67;;;22.30;54.00;;;;;;5163311;28;20053;-51
2021/11/19 00:52:05;;;;;;;5.00;2.67;;;22.30;54.00;;;;;;5141140;28;20048;-52
2021/11/19 00:54:38;;;;;;;6.32;3.00;;;22.30;54.00;;;;;;5160117;28;20344;-55
2021/11/19 00:57:13;;;;;;;4.18;2.63;;;22.30;53.90;;;;;;5146962;28;20045;-53
2021/11/19 00:59:48;;;;;;;6.22;2.60;;;22.30;54.00;;;;;;5146340;28;20046;-52
2021/11/19 01:02:25;;;;;;;4.03;2.78;;;22.30;53.90;;;;;;5157705;28;20040;-54
2021/11/19 01:05:00;;;;;;;4.45;3.15;;;22.30;53.90;;;;;;5140426;28;20553;-47
2021/11/19 01:07:34;;;;;;;3.97;2.72;;;22.30;53.90;;;;;;5153636;28;20072;-53
2021/11/19 01:10:14;;;;;;;3.72;2.80;;;22.30;53.90;;;;;;5140253;28;20996;-55
2021/11/19 01:12:48;;;;;;;4.40;2.60;;;22.30;53.90;;;;;;5156856;28;20414;-56
2021/11/19 01:15:27;;;;;;;;;;;22.30;53.90;;;;;;5140671;28;20654;-50
2021/11/19 01:18:11;;;;;;;5.68;2.72;;;22.20;53.90;;;;;;5147700;28;19924;-48
2021/11/19 01:20:49;;;;;;;2.97;2.50;;;22.30;54.00;;;;;;5159533;28;20042;-46
2021/11/19 01:23:25;;;;;;;3.95;2.83;;;22.20;53.90;;;;;;5157911;28;20041;-57
2021/11/19 01:26:02;;;;;;;3.47;2.55;;;22.30;53.90;;;;;;5164936;28;20045;-53
2021/11/19 01:28:35;;;;;;;2.80;2.60;;;22.20;53.90;;;;;;5161214;28;20065;-48
2021/11/19 01:31:12;;;;;;;3.58;2.83;;;22.30;53.90;;;;;;5169550;28;20049;-50
2021/11/19 01:33:45;;;;;;;3.42;2.70;;;22.30;53.90;;;;;;5172018;28;20654;-49
2021/11/19 01:36:34;;;;;;;3.17;2.53;;;22.20;53.90;;;;;;5151676;28;20045;-50
2021/11/19 01:39:18;;;;;;;3.88;2.47;;;22.30;53.90;;;;;;5164251;28;20073;-56
2021/11/19 01:42:14;;;;;;;2.85;2.30;;;22.30;54.00;;;;;;5162597;28;20048;-56
2021/11/19 01:45:01;;;;;;;5.97;2.63;;;22.30;53.90;;;;;;5158212;28;20402;-47
2021/11/19 01:47:38;;;;;;;3.25;2.38;;;22.20;53.80;;;;;;5160397;28;20046;-53
2021/11/19 01:50:28;;;;;;;5.13;2.28;;;22.20;53.80;;;;;;5161490;28;20045;-48
2021/11/19 01:53:03;;;;;;;3.78;2.80;;;22.20;53.80;;;;;;5158365;28;20038;-58
2021/11/19 01:55:43;;;;;;;4.55;2.30;;;22.20;53.90;;;;;;5142324;28;20046;-55
2021/11/19 01:58:21;;;;;;;3.47;2.63;;;22.30;53.90;;;;;;5143102;28;20562;-51
2021/11/19 02:01:01;;;;;;;3.92;2.47;;;22.20;53.90;;;;;;5136136;28;20057;-57
2021/11/19 02:03:37;;;;;;;10.98;2.83;;;22.30;53.90;;;;;;5130578;28;20046;-51
2021/11/19 02:06:13;;;;;;;7.82;2.75;;;22.20;53.90;;;;;;5137389;28;20046;-52
2021/11/19 02:08:48;;;;;;;4.57;2.65;;;22.20;53.90;;;;;;5122679;28;20405;-52
2021/11/19 02:11:51;;;;;;;3.47;2.10;;;22.20;53.90;;;;;;5137714;28;20921;-56
2021/11/19 02:14:36;;;;;;;3.65;2.38;;;22.20;53.90;;;;;;5118022;28;20501;-50
2021/11/19 02:17:09;;;;;;;3.40;2.47;;;22.20;53.90;;;;;;5127735;28;20491;-55
2021/11/19 02:19:45;;;;;;;;;;;22.20;53.90;;;;;;5124641;28;20054;-51
2021/11/19 02:22:22;;;;;;;4.10;2.33;;;22.10;54.00;;;;;;5134328;28;19925;-58
2021/11/19 02:25:08;;;;;;;7.45;2.13;;;22.20;53.90;;;;;;5113194;28;20042;-58
2021/11/19 02:28:04;;;;;;;4.72;2.47;;;22.20;53.90;;;;;;5103659;28;20069;-48
2021/11/19 02:30:47;;;;;;;4.45;2.35;;;22.20;53.90;;;;;;5139619;28;20516;-51
2021/11/19 02:33:23;;;;;;;4.28;2.47;;;22.20;53.90;;;;;;5142689;28;20258;-58
2021/11/19 02:36:02;;;;;;;2.78;2.13;;;22.20;53.90;;;;;;5135762;28;20081;-53
2021/11/19 02:39:04;;;;;;;5.57;2.40;;;22.20;53.90;;;;;;5136347;28;20058;-53
2021/11/19 02:41:45;;;;;;;6.32;2.40;;;22.20;53.70;;;;;;5136314;28;20853;-50
2021/11/19 02:44:22;;;;;;;3.38;2.20;;;22.20;53.80;;;;;;5137934;28;20045;-58
2021/11/19 02:46:59;;;;;;;5.25;2.25;;;22.20;53.80;;;;;;5136695;28;20049;-50
2021/11/19 02:49:33;;;;;;;3.53;2.38;;;22.20;53.80;;;;;;5118503;28;20060;-52
2021/11/19 02:52:09;;;;;;;3.47;2.07;;;22.20;53.80;;;;;;5127152;28;20050;-53
2021/11/19 02:54:43;;;;;;;4.63;2.22;;;22.20;53.80;;;;;;5140343;28;20057;-51
2021/11/19 02:57:17;;;;;;;2.60;2.00;;;22.20;53.80;;;;;;5154899;28;20556;-55
2021/11/19 02:59:50;;;;;;;2.17;1.90;;;22.20;53.90;;;;;;5160389;28;20982;-52
2021/11/19 03:02:28;;;;;;;2.20;1.77;;;22.20;53.80;;;;;;5149794;28;21676;-52
2021/11/19 03:05:11;;;;;;;2.60;2.38;;;22.20;53.80;;;;;;5150933;28;20045;-51
2021/11/19 03:07:44;;;;;;;4.55;2.35;;;22.20;53.80;;;;;;5143530;28;20406;-50
2021/11/19 03:10:24;;;;;;;;;;;22.20;53.80;;;;;;5144841;28;20075;-49
2021/11/19 03:12:58;;;;;;;2.95;2.30;;;22.20;53.80;;;;;;5141579;28;21156;-54
2021/11/19 03:15:35;;;;;;;2.80;1.88;;;22.10;53.90;;;;;;5144905;28;20061;-56
2021/11/19 03:18:10;;;;;;;3.67;2.20;;;22.10;53.80;;;;;;5154568;28;20045;-50
2021/11/19 03:20:48;;;;;;;2.15;1.50;;;22.20;53.90;;;;;;5146153;28;20419;-54
2021/11/19 03:23:21;;;;;;;3.42;2.10;;;22.20;53.80;;;;;;5156356;28;20054;-54
2021/11/19 03:25:54;;;;;;;4.60;1.88;;;22.20;53.80;;;;;;5139300;28;20462;-56
2021/11/19 03:28:28;;;;;;;2.90;1.80;;;22.20;53.90;;;;;;5154270;28;20056;-53
2021/11/19 03:31:05;;;;;;;5.43;2.35;;;22.20;53.80;;;;;;5132786;28;20057;-53
2021/11/19 03:33:45;;;;;;;4.80;1.90;;;22.20;53.80;;;;;;5160165;28;20056;-49
2021/11/19 03:36:23;;;;;;;3.88;1.80;;;22.20;53.80;;;;;;5143199;28;20065;-51
2021/11/19 03:38:59;;;;;;;4.72;2.05;;;22.20;53.70;;;;;;5145596;28;20046;-55
2021/11/19 03:41:35;;;;;;;2.97;2.15;;;22.20;53.70;;;;;;5139261;28;20049;-53
2021/11/19 03:44:13;;;;;;;4.85;2.15;;;22.20;53.70;;;;;;5143404;28;20050;-52
2021/11/19 03:46:55;;;;;;;3.25;1.98;;;22.20;53.70;;;;;;5148862;28;20061;-55
2021/11/19 03:49:30;;;;;;;3.58;1.98;;;22.20;53.70;;;;;;5149378;28;20978;-49
2021/11/19 03:52:08;;;;;;;4.55;2.38;;;22.20;53.70;;;;;;5110586;28;20073;-49
2021/11/19 03:54:43;;;;;;;3.70;1.92;;;22.20;53.70;;;;;;5123931;28;20065;-52
2021/11/19 03:57:19;;;;;;;2.47;1.90;;;22.20;53.80;;;;;;5127691;28;20047;-51
2021/11/19 03:59:54;;;;;;;2.70;1.90;;;22.20;53.70;;;;;;5134198;28;20050;-55
2021/11/19 04:02:29;;;;;;;2.67;2.00;;;22.20;53.70;;;;;;5128247;28;20299;-55
2021/11/19 04:05:02;;;;;;;5.70;2.00;;;22.20;53.70;;;;;;5107979;28;20041;-51
2021/11/19 04:07:34;;;;;;;2.13;1.92;;;22.20;53.70;;;;;;5127005;28;20301;-50
2021/11/19 04:10:09;;;;;;;2.50;1.60;;;22.20;53.70;;;;;;5125176;28;20577;-48
2021/11/19 04:12:41;;;;;;;;;;;22.20;53.70;;;;;;5126780;28;20451;-47
2021/11/19 04:15:19;;;;;;;2.42;1.92;;;22.10;53.70;;;;;;5128321;28;19925;-51
2021/11/19 04:17:51;;;;;;;4.32;2.22;;;22.20;53.80;;;;;;5124092;28;20050;-53
2021/11/19 04:20:26;;;;;;;6.05;2.10;;;22.20;53.70;;;;;;5125337;28;20057;-54
2021/11/19 04:22:58;;;;;;;5.68;2.20;;;22.10;53.30;;;;;;5122040;28;20038;-57
2021/11/19 04:25:33;;;;;;;2.85;1.63;;;22.20;53.80;;;;;;5160193;23;20064;-48
2021/11/19 04:28:07;;;;;;;3.22;2.05;;;22.20;53.80;;;;;;5170203;28;20049;-50
2021/11/19 04:31:05;;;;;;;3.65;2.30;;;22.20;53.80;;;;;;5160770;28;20592;-50
2021/11/19 04:33:40;;;;;;;5.28;2.00;;;22.20;53.70;;;;;;5168155;28;20052;-50
2021/11/19 04:36:13;;;;;;;5.70;2.20;;;22.20;53.70;;;;;;5184158;28;20049;-51
2021/11/19 04:38:47;;;;;;;3.05;2.17;;;22.10;53.70;;;;;;5162686;28;20029;-50
2021/11/19 04:41:21;;;;;;;2.60;1.85;;;22.20;53.80;;;;;;5166091;28;20413;-52
2021/11/19 04:43:53;;;;;;;3.60;2.28;;;22.20;53.80;;;;;;5181325;28;20048;-52
2021/11/19 04:46:30;;;;;;;7.03;2.33;;;22.20;53.80;;;;;;5176904;28;20117;-51
2021/11/19 04:49:04;;;;;;;2.90;2.00;;;22.20;53.90;;;;;;5165428;28;20057;-50
2021/11/19 04:51:39;;;;;;;4.60;2.20;;;22.10;53.90;;;;;;5154816;28;20533;-56
2021/11/19 04:54:12;;;;;;;3.58;1.67;;;22.10;53.90;;;;;;5159595;28;20065;-51
2021/11/19 04:56:46;;;;;;;2.33;1.58;;;22.10;53.90;;;;;;5168391;28;20037;-51
2021/11/19 04:59:21;;;;;;;2.15;1.77;;;22.10;54.00;;;;;;5173624;28;20041;-54
2021/11/19 05:01:59;;;;;;;2.45;1.65;;;22.10;54.00;;;;;;5182072;28;20048;-47
2021/11/19 05:04:53;;;;;;;1.92;1.73;;;22.10;54.00;;;;;;5178591;28;20061;-51
2021/11/19 05:07:26;;;;;;;2.40;1.77;;;22.10;54.00;;;;;;5167702;28;20056;-49
2021/11/19 05:09:59;;;;;;;2.70;1.70;;;22.10;54.10;;;;;;5184578;28;20052;-49
2021/11/19 05:12:42;;;;;;;2.85;1.83;;;22.10;54.10;;;;;;5159831;28;20053;-57
2021/11/19 05:15:15;;;;;;;3.53;1.52;;;22.10;54.10;;;;;;5177346;28;20049;-47
2021/11/19 05:17:48;;;;;;;5.35;2.13;;;22.10;54.10;;;;;;5161718;28;20045;-50
2021/11/19 05:20:23;;;;;;;2.85;2.00;;;22.10;54.10;;;;;;5163052;28;20048;-52
2021/11/19 05:22:56;;;;;;;3.30;1.92;;;22.10;53.60;;;;;;5176730;28;20091;-49
2021/11/19 05:25:31;;;;;;;4.55;1.63;;;22.10;54.20;;;;;;5167838;28;20037;-52
2021/11/19 05:28:04;;;;;;;2.42;1.50;;;22.10;54.30;;;;;;5191545;28;20048;-55
2021/11/19 05:30:37;;;;;;;2.67;1.70;;;22.10;54.30;;;;;;5197740;28;20052;-49
2021/11/19 05:33:16;;;;;;;3.50;1.70;;;22.10;54.30;;;;;;5211340;28;20298;-53
2021/11/19 05:35:49;;;;;;;5.50;2.00;;;22.10;54.30;;;;;;5214197;28;20059;-47
2021/11/19 05:38:24;;;;;;;4.25;1.73;;;22.10;54.30;;;;;;5204615;28;20044;-53
2021/11/19 05:40:58;;;;;;;2.90;1.55;;;22.10;54.20;;;;;;5190556;28;20037;-51
2021/11/19 05:43:39;;;;;;;3.30;1.50;;;22.20;54.20;;;;;;5193776;28;20960;-52
2021/11/19 05:46:19;;;;;;;5.75;1.92;;;22.10;54.10;;;;;;5195511;28;20040;-50
2021/11/19 05:48:58;;;;;;;2.95;1.88;;;22.10;54.10;;;;;;5179954;28;20063;-55
2021/11/19 05:51:30;;;;;;;2.90;1.75;;;22.20;54.10;;;;;;5177728;28;20048;-56
2021/11/19 05:54:05;;;;;;;1.77;1.50;;;22.20;54.10;;;;;;5184053;28;20051;-53
2021/11/19 05:56:38;;;;;;;3.67;2.13;;;22.20;54.10;;;;;;5183793;28;20303;-51
2021/11/19 05:59:13;;;;;;;3.67;1.98;;;22.20;54.10;;;;;;5189870;28;20433;-51
2021/11/19 06:02:11;;;;;;;9.23;1.80;;;22.30;54.30;;;;;;5162929;28;20604;-50
2021/11/19 06:04:58;;;;;;;7.70;2.47;;;22.30;54.30;;;;;;5179172;28;20048;-51
2021/11/19 06:07:51;;;;;;;42.03;4.90;;;22.30;54.20;;;;;;5192762;28;20076;-50
2021/11/19 06:10:28;;;;;;;19.42;3.42;;;22.30;54.20;;;;;;5193562;28;20537;-50
2021/11/19 06:13:07;;;;;;;14.15;2.75;;;22.30;54.20;;;;;;5179277;28;20658;-58
2021/11/19 06:15:45;;;;;;;12.82;2.40;;;22.30;54.10;;;;;;5210776;28;20051;-50
2021/11/19 06:18:23;;;;;;;5.93;2.13;;;22.30;54.00;;;;;;5202060;28;20520;-53
2021/11/19 06:20:59;;;;;;;12.32;2.47;;;22.30;53.90;;;;;;5211412;28;20036;-48
2021/11/19 06:23:38;;;;;;;11.95;3.03;;;22.30;53.80;;;;;;5186896;28;20445;-50
2021/11/19 06:26:14;;;;;;;7.55;2.50;;;22.30;53.70;;;;;;5183525;28;20481;-49
2021/11/19 06:28:54;;;;;;;14.85;3.22;;;22.30;53.60;;;;;;5185833;28;20051;-49
2021/11/19 06:31:28;;;;;;;11.43;2.35;;;22.30;53.60;;;;;;5198634;28;20055;-54
2021/11/19 06:34:01;;;;;;;;;;;22.40;53.70;;;;;;5190116;28;20059;-53
2021/11/19 06:36:34;;;;;;;8.35;2.75;;;22.30;53.70;;;;;;5208744;28;20361;-52
2021/11/19 06:39:26;;;;;;;9.27;2.63;;;22.30;53.70;;;;;;5204520;28;20052;-48
2021/11/19 06:42:03;;;;;;;10.93;2.58;;;22.40;53.70;;;;;;5204022;28;20036;-51
2021/11/19 06:44:48;;;;;;;15.07;2.67;;;22.40;53.70;;;;;;5214227;28;20052;-50
2021/11/19 06:47:34;;;;;;;6.97;2.63;;;22.40;53.70;;;;;;5206583;28;20421;-50
2021/11/19 06:50:36;;;;;;;22.60;3.08;;;22.40;53.60;;;;;;5223614;28;20115;-47
2021/11/19 06:53:14;;;;;;;11.90;2.30;;;22.40;53.60;;;;;;5218570;28;20032;-50
2021/11/19 06:56:06;;;;;;;11.45;2.72;;;22.40;53.60;;;;;;5223757;28;20045;-48
2021/11/19 06:58:59;;;;;;;17.45;2.90;;;22.40;53.60;;;;;;5179574;28;20041;-49
2021/11/19 07:01:33;;;;;;;7.78;2.25;;;22.40;53.60;;;;;;5212723;28;20393;-49
2021/11/19 07:04:07;;;;;;;9.75;2.70;;;22.40;53.60;;;;;;5216563;28;20240;-50
2021/11/19 07:06:39;;;;;;;8.45;3.15;;;22.50;53.90;;;;;;5216525;28;20052;-50
2021/11/19 07:09:14;;;;;;;13.85;2.53;;;22.40;53.60;;;;;;5201820;28;20036;-52
2021/11/19 07:11:47;;;;;;;7.55;2.20;;;22.50;53.70;;;;;;5206891;28;20055;-50
2021/11/19 07:14:20;;;;;;;5.72;2.28;;;22.50;53.60;;;;;;5213358;28;20060;-51
2021/11/19 07:16:52;;;;;;;6.05;2.40;;;22.50;53.60;;;;;;5211445;28;20051;-50
2021/11/19 07:19:28;;;;;;;6.97;2.50;;;22.50;53.60;;;;;;5205121;28;20051;-50
2021/11/19 07:22:02;;;;;;;8.73;2.55;;;22.50;53.60;;;;;;5193790;28;20040;-49
2021/11/19 07:24:37;;;;;;;6.93;2.33;;;22.50;53.60;;;;;;5210023;28;20041;-48
2021/11/19 07:27:15;;;;;;;6.93;2.30;;;22.50;53.50;;;;;;5209338;28;20040;-51
2021/11/19 07:29:48;;;;;;;5.90;2.28;;;22.50;53.50;;;;;;5198311;28;20050;-51
2021/11/19 07:32:40;;;;;;;6.88;2.30;;;22.50;53.50;;;;;;5221797;28;20417;-49
2021/11/19 07:35:40;;;;;;;9.88;1.90;;;22.50;53.40;;;;;;5206214;28;20065;-51
2021/11/19 07:38:44;;;;;;;6.90;2.15;;;22.50;53.40;;;;;;5205510;28;20393;-48
2021/11/19 07:41:27;;;;;;;;;;;22.50;53.40;;;;;;5219805;28;20120;-47
2021/11/19 07:44:12;;;;;;;6.35;2.33;;;22.50;53.40;;;;;;5218771;28;20520;-50
2021/11/19 07:47:07;;;;;;;5.65;2.70;;;22.50;53.40;;;;;;5223959;28;20053;-54
2021/11/19 07:49:41;;;;;;;7.70;2.60;;;22.50;53.40;;;;;;5224267;28;20111;-47
2021/11/19 07:52:17;;;;;;;13.05;2.58;;;22.50;53.30;;;;;;5207887;28;20060;-51
2021/11/19 07:54:50;;;;;;;9.40;3.15;;;22.50;53.20;;;;;;5210480;28;20400;-52
2021/11/19 07:57:25;;;;;;;7.20;1.85;;;22.60;53.30;;;;;;5221753;28;20045;-48
2021/11/19 08:00:04;;;;;;;8.77;2.10;;;22.60;53.20;;;;;;5224009;28;20153;-50
2021/11/19 08:02:38;;;;;;;5.70;1.90;;;22.60;53.20;;;;;;5206753;28;20499;-52
2021/11/19 08:05:10;;;;;;;9.55;2.80;;;22.50;52.80;;;;;;5210015;28;20048;-47
2021/11/19 08:07:55;;;;;;;10.07;2.17;;;22.60;53.40;;;;;;5210508;28;20246;-48
2021/11/19 08:10:34;;;;;;;5.90;2.05;;;22.60;53.40;;;;;;5215508;28;21013;-48
2021/11/19 08:13:09;;;;;;;9.45;2.65;;;22.60;53.40;;;;;;5196969;28;20369;-52
2021/11/19 08:15:42;;;;;;;12.15;2.05;;;22.60;53.40;;;;;;5230126;28;20049;-46
2021/11/19 08:18:20;;;;;;;6.95;2.28;;;22.60;53.40;;;;;;5195049;28;20459;-50
2021/11/19 08:20:54;;;;;;;5.07;2.60;;;22.60;53.40;;;;;;5226493;28;20045;-48
2021/11/19 08:23:36;;;;;;;8.98;2.60;;;22.60;53.40;;;;;;5226260;28;20045;-49
2021/11/19 08:26:21;;;;;;;7.20;2.40;;;22.60;53.40;;;;;;5225450;28;20045;-48
2021/11/19 08:28:54;;;;;;;5.78;2.20;;;22.60;53.40;;;;;;5225197;28;20536;-49
2021/11/19 08:31:27;;;;;;;5.43;1.67;;;22.70;54.20;;;;;;5228249;28;20445;-49
2021/11/19 08:34:00;;;;;;;6.25;1.83;;;22.70;54.00;;;;;;5229508;28;20052;-48
2021/11/19 08:36:33;;;;;;;4.33;1.80;;;22.70;54.20;;;;;;5228083;28;20060;-48
2021/11/19 08:39:09;;;;;;;4.33;1.60;;;22.70;54.30;;;;;;5228020;28;20401;-46
2021/11/19 08:41:42;;;;;;;4.20;1.73;;;22.80;54.50;;;;;;5227025;28;20052;-49
2021/11/19 08:44:14;;;;;;;4.70;2.00;;;22.70;54.40;;;;;;5229240;28;20444;-50
2021/11/19 08:47:09;;;;;;;4.68;1.80;;;22.70;54.40;;;;;;5225816;28;20631;-46
2021/11/19 08:49:41;;;;;;;3.78;1.60;;;22.70;54.30;;;;;;5226207;28;20564;-47
2021/11/19 08:52:16;;;;;;;2.58;1.67;;;22.70;54.20;;;;;;5226204;28;20520;-48
2021/11/19 08:54:50;;;;;;;5.95;1.90;;;22.70;54.20;;;;;;5227533;28;20489;-48
2021/11/19 08:57:25;;;;;;;5.10;2.00;;;22.70;54.10;;;;;;5223676;28;20059;-48
2021/11/19 08:59:58;;;;;;;4.13;2.22;;;22.70;54.00;;;;;;5227309;28;20572;-49
2021/11/19 09:02:31;;;;;;;7.70;1.77;;;22.70;54.00;;;;;;5227263;28;20040;-47
2021/11/19 09:05:07;;;;;;;5.85;1.77;;;22.70;54.00;;;;;;5222116;28;20045;-46
2021/11/19 09:07:40;;;;;;;5.85;1.80;;;22.70;53.90;;;;;;5227764;28;20064;-48
2021/11/19 09:10:15;;;;;;;4.63;1.88;;;22.80;53.90;;;;;;5225225;28;20052;-48
2021/11/19 09:12:48;;;;;;;3.05;1.52;;;22.80;53.90;;;;;;5229625;28;20057;-48
2021/11/19 09:15:23;;;;;;;5.15;1.60;;;22.80;53.80;;;;;;5224860;28;20048;-50
2021/11/19 09:18:08;;;;;;;4.72;1.90;;;22.80;53.80;;;;;;5227414;28;20060;-49
2021/11/19 09:20:53;;;;;;;4.55;1.92;;;22.80;53.80;;;;;;5209768;28;20048;-48
2021/11/19 09:23:29;;;;;;;6.47;1.98;;;22.80;53.80;;;;;;5229772;28;20213;-50
2021/11/19 09:26:13;;;;;;;4.88;2.08;;;22.80;53.70;;;;;;5229575;28;20041;-49
2021/11/19 09:28:50;;;;;;;2.33;1.40;;;22.80;53.70;;;;;;5224489;28;20061;-48
2021/11/19 09:31:23;;;;;;;4.00;1.85;;;22.80;53.60;;;;;;5226211;28;20044;-47
2021/11/19 09:33:56;;;;;;;5.53;2.08;;;22.80;53.60;;;;;;5223056;28;20044;-50
2021/11/19 09:36:28;;;;;;;4.68;1.55;;;22.80;53.60;;;;;;5223357;28;20061;-48
2021/11/19 09:39:03;;;;;;;2.55;1.67;;;22.80;53.60;;;;;;5213500;28;20040;-48
2021/11/19 09:41:36;;;;;;;5.38;1.63;;;22.80;53.50;;;;;;5203890;28;20245;-49
2021/11/19 09:44:28;;;;;;;;;;;22.80;53.50;;;;;;5204704;28;20037;-47
2021/11/19 09:47:09;;;;;;;7.85;2.53;;;22.70;53.40;;;;;;5196398;28;19929;-49
2021/11/19 09:50:11;;;;;;;3.17;1.98;;;22.80;53.60;;;;;;5224772;28;20388;-46
2021/11/19 09:53:29;;;;;;;2.88;1.40;;;22.80;53.60;;;;;;5227468;28;20492;-49
2021/11/19 09:56:26;;;;;;;2.58;1.60;;;22.80;53.60;;;;;;5223151;28;20055;-48
2021/11/19 09:59:13;;;;;;;2.80;1.75;;;22.80;53.60;;;;;;5221515;28;20052;-46
2021/11/19 10:02:34;;;;;;;11.73;2.40;;;22.80;53.60;;;;;;5201738;28;20056;-49
2021/11/19 10:05:28;;;;;;;3.20;1.88;;;22.80;53.70;;;;;;5166954;28;20504;-49
2021/11/19 10:08:21;;;;;;;4.03;2.00;;;22.80;53.70;;;;;;5202580;28;20770;-49
2021/11/19 10:11:17;;;;;;;4.57;1.98;;;22.80;53.70;;;;;;5222181;28;20056;-47
2021/11/19 10:14:02;;;;;;;6.18;1.95;;;22.80;53.60;;;;;;5218955;28;20045;-50
2021/11/19 10:17:05;;;;;;;4.35;1.85;;;22.80;53.60;;;;;;4516082;28;10001588;-48
2021/11/19 10:19:39;;;;;;;4.55;2.13;;;22.80;53.50;;;;;;5213213;28;20049;-49
2021/11/19 10:22:34;;;;;;;4.90;2.22;;;22.80;53.60;;;;;;5213556;28;20040;-47
2021/11/19 10:25:13;;;;;;;6.18;2.20;;;22.80;53.50;;;;;;5216720;28;20822;-48
2021/11/19 10:27:52;;;;;;;5.93;1.85;;;22.80;53.60;;;;;;5208980;28;20089;-47
2021/11/19 10:30:38;;;;;;;5.20;1.95;;;22.80;53.60;;;;;;5211835;28;20056;-47
2021/11/19 10:33:27;;;;;;;6.82;1.88;;;22.80;53.50;;;;;;5214245;28;20051;-48
2021/11/19 10:36:06;;;;;;;5.53;1.80;;;22.80;54.20;;;;;;5212631;28;20362;-48
2021/11/19 10:39:20;;;;;;;6.80;2.10;;;22.80;53.50;;;;;;5207964;28;20498;-50
2021/11/19 10:42:24;;;;;;;3.90;1.90;;;22.80;53.40;;;;;;5216218;28;20057;-51
2021/11/19 10:44:56;;;;;;;5.68;1.70;;;22.80;53.50;;;;;;5217217;28;20287;-45
2021/11/19 10:47:57;;;;;;;4.40;1.98;;;22.80;53.60;;;;;;5214367;28;20599;-51
2021/11/19 10:50:48;;;;;;;3.90;1.92;;;22.80;53.50;;;;;;5213708;28;20079;-45
2021/11/19 10:53:48;;;;;;;1.85;1.48;;;22.80;53.60;;;;;;5213258;28;20363;-48
2021/11/19 10:56:39;;;;;;;2.72;1.65;;;22.80;53.60;;;;;;5216255;28;20245;-50
2021/11/19 10:59:17;;;;;;;3.15;1.80;;;22.80;53.60;;;;;;5214976;28;20048;-48
2021/11/19 11:02:08;;;;;;;3.47;2.15;;;22.80;53.70;;;;;;5213753;28;20081;-50
2021/11/19 11:04:41;;;;;;;5.18;2.50;;;22.80;53.70;;;;;;5223637;28;20045;-49
2021/11/19 11:07:39;;;;;;;4.13;1.55;;;22.80;53.70;;;;;;5225215;28;20053;-50
2021/11/19 11:10:15;;;;;;;6.07;1.92;;;22.80;53.60;;;;;;5208123;28;20405;-51
2021/11/19 11:12:53;;;;;;;4.07;1.75;;;22.80;54.30;;;;;;5214380;28;20495;-49
2021/11/19 11:15:34;;;;;;;4.40;1.50;;;22.80;53.60;;;;;;5223958;28;20180;-48
2021/11/19 11:18:09;;;;;;;8.38;1.60;;;22.90;53.60;;;;;;5221186;28;20056;-47
2021/11/19 11:20:55;;;;;;;4.18;2.17;;;22.90;53.40;;;;;;5208181;28;20055;-50
2021/11/19 11:23:50;;;;;;;2.75;1.80;;;23.10;53.30;;;;;;5213074;28;20048;-55
2021/11/19 11:26:38;;;;;;;6.43;2.17;;;23.20;53.00;;;;;;5218165;28;20043;-51
2021/11/19 11:29:16;;;;;;;3.97;1.75;;;23.40;52.60;;;;;;5219182;28;20408;-49
2021/11/19 11:32:16;;;;;;;2.70;1.77;;;23.70;52.20;;;;;;5223384;28;20048;-49
2021/11/19 11:35:11;;;;;;;5.47;1.95;;;24.00;51.70;;;;;;5223355;28;20570;-47
2021/11/19 11:38:08;;;;;;;3.65;2.08;;;24.30;51.10;;;;;;5219852;28;20068;-49
2021/11/19 11:40:51;;;;;;;4.28;2.00;;;24.40;50.80;;;;;;5218026;28;20536;-49
2021/11/19 11:43:29;;;;;;;5.63;2.30;;;24.50;50.60;;;;;;5202415;28;20049;-47
2021/11/19 11:46:25;;;;;;;4.68;2.20;;;24.50;50.60;;;;;;5220253;28;20044;-47
2021/11/19 11:49:08;;;;;;;5.25;2.80;;;24.30;50.60;;;;;;5220452;28;20044;-50
2021/11/19 11:52:00;;;;;;;6.72;3.17;;;24.30;50.70;;;;;;5207964;28;20056;-49
2021/11/19 11:55:12;;;;;;;10.45;3.45;;;24.50;50.50;;;;;;5224925;28;20056;-49
2021/11/19 11:57:47;;;;;;;11.50;4.32;;;24.40;50.60;;;;;;5192927;28;20416;-47
2021/11/19 12:00:56;;;;;;;12.95;4.97;;;24.30;50.70;;;;;;5212049;28;20048;-48
2021/11/19 12:03:35;;;;;;;9.38;4.47;;;24.20;50.80;;;;;;5218788;28;20051;-50
2021/11/19 12:06:14;;;;;;;14.57;5.13;;;24.20;50.90;;;;;;5220522;28;20064;-48
2021/11/19 12:08:52;;;;;;;9.05;5.22;;;24.20;50.80;;;;;;5218034;28;20048;-48
2021/11/19 12:11:36;;;;;;;12.70;4.78;;;24.30;50.80;;;;;;5212530;28;20408;-48
2021/11/19 12:14:11;;;;;;;12.45;5.10;;;24.70;50.20;;;;;;5213551;28;20048;-49
2021/11/19 12:16:59;;;;;;;11.00;5.20;;;24.60;49.90;;;;;;5197618;28;20052;-50
2021/11/19 12:19:34;;;;;;;13.15;4.78;;;24.60;50.20;;;;;;5194486;28;20436;-47
2021/11/19 12:22:19;;;;;;;12.10;4.60;;;24.80;49.80;;;;;;5196873;28;20064;-47
2021/11/19 12:24:58;;;;;;;9.43;4.90;;;24.80;49.60;;;;;;5189139;28;20804;-47
2021/11/19 12:27:46;;;;;;;13.00;4.60;;;24.50;50.10;;;;;;5187691;28;20041;-49
2021/11/19 12:30:30;;;;;;;7.88;4.22;;;24.30;50.60;;;;;;5190316;28;20048;-50
2021/11/19 12:33:23;;;;;;;10.25;4.55;;;24.10;50.90;;;;;;5201603;28;20052;-52
2021/11/19 12:36:02;;;;;;;8.83;3.93;;;24.10;51.10;;;;;;5205251;28;20049;-48
2021/11/19 12:38:40;;;;;;;8.00;4.30;;;24.10;51.10;;;;;;5191877;28;20053;-50
2021/11/19 12:41:42;;;;;;;8.68;4.18;;;24.20;51.00;;;;;;5197325;28;20059;-52
2021/11/19 12:44:32;;;;;;;8.23;4.15;;;24.30;50.70;;;;;;5197750;28;20048;-47
2021/11/19 12:47:20;;;;;;;10.55;4.35;;;25.00;49.80;;;;;;5199890;28;20049;-50
2021/11/19 12:50:14;;;;;;;7.82;3.58;;;25.30;49.10;;;;;;5200668;28;20049;-47
2021/11/19 12:53:03;;;;;;;7.07;3.60;;;25.30;49.00;;;;;;5199354;28;20629;-50
2021/11/19 12:55:58;;;;;;;11.45;3.13;;;25.00;49.50;;;;;;5207815;28;20401;-47
2021/11/19 12:59:05;;;;;;;10.38;4.03;;;24.80;49.90;;;;;;5198641;28;20057;-49
2021/11/19 13:02:02;;;;;;;10.15;3.90;;;24.50;50.30;;;;;;4153347;28;10000558;-47
2021/11/19 13:05:11;;;;;;;9.07;3.00;;;24.40;50.60;;;;;;5205874;28;20497;-48
2021/11/19 13:07:44;;;;;;;5.43;3.10;;;24.20;50.90;;;;;;5185978;28;20583;-52
2021/11/19 13:10:16;;;;;;;6.03;3.15;;;24.20;51.10;;;;;;5190024;28;20041;-47
2021/11/19 13:13:22;;;;;;;8.35;3.80;;;24.10;51.20;;;;;;5192190;28;20045;-47
2021/11/19 13:16:13;;;;;;;8.23;3.10;;;24.10;51.40;;;;;;5183668;28;20048;-48
2021/11/19 13:18:48;;;;;;;8.57;2.80;;;24.10;51.50;;;;;;5185278;28;20041;-47
2021/11/19 13:21:33;;;;;;;6.82;2.92;;;24.30;51.20;;;;;;5203157;28;20099;-48
2021/11/19 13:24:11;;;;;;;5.65;3.22;;;24.40;50.90;;;;;;5203743;28;20052;-50
2021/11/19 13:26:46;;;;;;;6.15;2.88;;;24.30;50.90;;;;;;5177101;28;20638;-50
2021/11/19 13:29:50;;;;;;;8.75;3.20;;;24.30;51.00;;;;;;5212844;28;20991;-50
2021/11/19 13:32:27;;;;;;;;;;;24.30;51.10;;;;;;5186965;28;20052;-47
2021/11/19 13:35:08;;;;;;;7.55;2.60;;;24.30;51.00;;;;;;5195859;28;26042;-48
2021/11/19 13:37:59;;;;;;;4.72;2.70;;;24.30;51.00;;;;;;5198012;28;20052;-49
2021/11/19 13:40:31;;;;;;;5.57;2.20;;;24.20;51.00;;;;;;5195407;28;20411;-47
2021/11/19 13:43:08;;;;;;;7.47;2.70;;;24.20;51.40;;;;;;5198713;28;20510;-48
2021/11/19 13:46:06;;;;;;;5.55;2.13;;;24.10;51.40;;;;;;5201748;28;20207;-49
2021/11/19 13:49:03;;;;;;;4.90;2.22;;;24.10;51.50;;;;;;5201593;28;20416;-49
2021/11/19 13:51:57;;;;;;;5.78;2.50;;;24.10;51.50;;;;;;5197190;28;20049;-51
2021/11/19 13:54:35;;;;;;;7.38;2.42;;;24.10;51.50;;;;;;5197215;28;20044;-49
2021/11/19 13:57:37;;;;;;;5.88;2.75;;;24.20;51.50;;;;;;5200617;28;21253;-49
2021/11/19 14:00:17;;;;;;;7.72;2.92;;;24.30;51.30;;;;;;5202838;28;20578;-46
2021/11/19 14:02:54;;;;;;;3.90;2.45;;;24.40;51.10;;;;;;5203886;28;20088;-47
2021/11/19 14:05:40;;;;;;;4.78;2.15;;;24.50;50.90;;;;;;5189749;28;20044;-51
2021/11/19 14:08:12;;;;;;;4.00;2.03;;;24.60;50.70;;;;;;5174739;28;20044;-46
2021/11/19 14:11:01;;;;;;;4.93;2.30;;;24.60;50.60;;;;;;5200486;28;20087;-49
2021/11/19 14:13:35;;;;;;;4.30;2.28;;;24.70;50.50;;;;;;5197478;28;20392;-48